Airfield :
LOGIN :

Register | Disclaimer

   EN    FR    IT 

 










Legend :    VFR   Marginal VFR   IFR   Intensive IFR   Very Intensive IFR
Visi :
Ceiling :
>= 8 km
>= 3000ft
5 to 8 km
1000 to 3000 ft
1500m to 5 km
500 to 1000 ft
800 to 1500m
200 to 500 ft
< 800m
< 200 ft
Symbols :   Thunderstorms  Fog  Heavy snow  Heavy precipitations  Wind > 20 kt
SIGMETs :     Misc.  Thunderstorms  Icing  Turbulence  Mountain Waves  Volcanic Ashes







- Airport Elevation : 333 ft


LIPL - Ghedi Brescia (Mil)

CURRENT METAR :
  • 212355Z /////KT 9999 FEW040 SCT070 22/21 Q1011 RMK BKN VIS MIN 9999 WIND THR31 31003KT BLU

EXPIRED METARs :
  • 212255Z /////KT 9999 FEW040 SCT070 22/21 Q1011 RMK BKN VIS MIN 9999 WIND THR31 30002KT BLU
  • 212155Z /////KT 9999 SCT040 SCT070 23/21 Q1011 RMK BKN VIS MIN 9999 WIND THR31 06004KT BLU

TAF TAF LIPL
Valid from the 22 at 00:00 until the 22 at 09:00 UTC


212300Z 2200/2209 VRB05KT 9999 FEW030 SCT050
PROB30
TEMPO 2200/2203 5000 TSRA FEW020CB SCT040
No reported NOTAMs for that airfield.



MET'MAP, your aeronautical weather chart ! - Copyright ORBIFLY December 2007 - Disclaimer

ORBIFLY MET'MAP TEAM :

Programming & Development : Alexandra Zaïnal
Concept & Development : Baudouin d'Aumeries
Co-Development & Prog : Marc-Olivier Méhu
Technical & hardware support : Manuel Goepfert

Contact : metmap@orbifly.com




SOURCES & CREDITS :

   NOAA